Terminal Aerodrome Forecast
Issued by NWS Cleveland, OH

Home | Current Version | Previous Version | Graphics & Text | Print | Product List | Glossary On
Versions: 1 2 3 4 5 6 7 8 9 10 11 12 13 14 15 16 17 18 19 20 21 22 23
000
FTUS41 KCLE 271800 AAA
TAFMFD
TAF AMD
KMFD 271854Z 2719/2818 22010KT P6SM SCT025 BKN040
      TEMPO 2720/2724 3SM TSRA OVC025CB
     FM280000 29010KT P6SM BKN040 OVC100
      TEMPO 2800/2804 5SM -SHRA BR OVC040
     FM280400 29008KT P6SM SCT060 BKN100
     FM280800 29010KT P6SM SCT006 OVC150
     FM281100 31010KT 5SM BR OVC006
     FM281500 33012KT P6SM OVC015=

USA.gov is the U.S. government's official web portal to all federal, state and local government web resources and services.